sensor_id;sensor_type;location;lat;lon;timestamp;P1;durP1;ratioP1;P2;durP2;ratioP2
17965;SDS011;9108;53.204;10.424;2023-04-03T00:01:03;10.40;;;2.42;;
17965;SDS011;9108;53.204;10.424;2023-04-03T00:03:32;10.98;;;2.75;;
17965;SDS011;9108;53.204;10.424;2023-04-03T00:05:59;11.95;;;2.83;;
17965;SDS011;9108;53.204;10.424;2023-04-03T00:08:26;13.35;;;2.95;;
17965;SDS011;9108;53.204;10.424;2023-04-03T00:10:55;11.67;;;2.90;;
17965;SDS011;9108;53.204;10.424;2023-04-03T00:13:22;11.55;;;3.03;;
17965;SDS011;9108;53.204;10.424;2023-04-03T00:15:50;12.80;;;2.72;;
17965;SDS011;9108;53.204;10.424;2023-04-03T00:18:17;12.23;;;3.00;;
17965;SDS011;9108;53.204;10.424;2023-04-03T00:20:45;12.38;;;3.20;;
17965;SDS011;9108;53.204;10.424;2023-04-03T00:23:12;15.17;;;3.20;;
17965;SDS011;9108;53.204;10.424;2023-04-03T00:25:40;15.95;;;3.33;;
17965;SDS011;9108;53.204;10.424;2023-04-03T00:28:07;14.88;;;2.83;;
17965;SDS011;9108;53.204;10.424;2023-04-03T00:30:35;13.70;;;2.97;;
17965;SDS011;9108;53.204;10.424;2023-04-03T00:33:02;11.90;;;2.80;;
17965;SDS011;9108;53.204;10.424;2023-04-03T00:35:29;13.15;;;3.03;;
17965;SDS011;9108;53.204;10.424;2023-04-03T00:37:58;12.93;;;2.90;;
17965;SDS011;9108;53.204;10.424;2023-04-03T00:40:26;17.40;;;3.10;;
17965;SDS011;9108;53.204;10.424;2023-04-03T00:42:55;12.80;;;2.70;;
17965;SDS011;9108;53.204;10.424;2023-04-03T00:45:32;14.55;;;3.08;;
17965;SDS011;9108;53.204;10.424;2023-04-03T00:48:00;11.45;;;2.85;;
17965;SDS011;9108;53.204;10.424;2023-04-03T00:50:30;14.27;;;3.20;;
17965;SDS011;9108;53.204;10.424;2023-04-03T00:52:59;14.23;;;3.00;;
17965;SDS011;9108;53.204;10.424;2023-04-03T00:55:26;13.68;;;2.90;;
17965;SDS011;9108;53.204;10.424;2023-04-03T00:57:53;12.68;;;3.00;;
17965;SDS011;9108;53.204;10.424;2023-04-03T01:00:21;14.20;;;3.00;;
17965;SDS011;9108;53.204;10.424;2023-04-03T01:02:49;18.45;;;3.35;;
17965;SDS011;9108;53.204;10.424;2023-04-03T01:05:17;13.13;;;2.97;;
17965;SDS011;9108;53.204;10.424;2023-04-03T01:07:44;13.48;;;2.90;;
17965;SDS011;9108;53.204;10.424;2023-04-03T01:10:14;14.68;;;3.30;;
17965;SDS011;9108;53.204;10.424;2023-04-03T01:12:43;15.68;;;2.92;;
17965;SDS011;9108;53.204;10.424;2023-04-03T01:15:11;16.40;;;3.33;;
17965;SDS011;9108;53.204;10.424;2023-04-03T01:17:40;17.02;;;3.30;;
17965;SDS011;9108;53.204;10.424;2023-04-03T01:22:51;14.52;;;3.17;;
17965;SDS011;9108;53.204;10.424;2023-04-03T01:25:22;12.88;;;3.08;;
17965;SDS011;9108;53.204;10.424;2023-04-03T01:27:49;13.63;;;3.05;;
17965;SDS011;9108;53.204;10.424;2023-04-03T01:30:17;15.77;;;3.53;;
17965;SDS011;9108;53.204;10.424;2023-04-03T01:32:46;13.25;;;3.25;;
17965;SDS011;9108;53.204;10.424;2023-04-03T01:35:13;17.60;;;3.50;;
17965;SDS011;9108;53.204;10.424;2023-04-03T01:37:40;16.75;;;3.42;;
17965;SDS011;9108;53.204;10.424;2023-04-03T01:40:08;12.95;;;3.80;;
17965;SDS011;9108;53.204;10.424;2023-04-03T01:42:35;14.77;;;3.47;;
17965;SDS011;9108;53.204;10.424;2023-04-03T01:45:03;15.52;;;3.65;;
17965;SDS011;9108;53.204;10.424;2023-04-03T01:47:30;15.82;;;3.95;;
17965;SDS011;9108;53.204;10.424;2023-04-03T01:49:58;15.18;;;3.90;;
17965;SDS011;9108;53.204;10.424;2023-04-03T01:52:25;11.43;;;3.60;;
17965;SDS011;9108;53.204;10.424;2023-04-03T01:54:52;13.15;;;3.67;;
17965;SDS011;9108;53.204;10.424;2023-04-03T01:57:20;14.38;;;3.50;;
17965;SDS011;9108;53.204;10.424;2023-04-03T01:59:47;14.82;;;3.67;;
17965;SDS011;9108;53.204;10.424;2023-04-03T02:02:14;14.75;;;3.53;;
17965;SDS011;9108;53.204;10.424;2023-04-03T02:04:41;15.90;;;3.58;;
17965;SDS011;9108;53.204;10.424;2023-04-03T02:07:10;17.67;;;3.65;;
17965;SDS011;9108;53.204;10.424;2023-04-03T02:09:37;15.07;;;3.60;;
17965;SDS011;9108;53.204;10.424;2023-04-03T02:12:04;16.38;;;3.70;;
17965;SDS011;9108;53.204;10.424;2023-04-03T02:14:32;15.75;;;3.75;;
17965;SDS011;9108;53.204;10.424;2023-04-03T02:16:59;15.98;;;3.45;;
17965;SDS011;9108;53.204;10.424;2023-04-03T02:19:30;14.73;;;3.67;;
17965;SDS011;9108;53.204;10.424;2023-04-03T02:21:57;12.48;;;3.50;;
17965;SDS011;9108;53.204;10.424;2023-04-03T02:24:25;12.68;;;3.60;;
17965;SDS011;9108;53.204;10.424;2023-04-03T02:26:52;16.10;;;3.75;;
17965;SDS011;9108;53.204;10.424;2023-04-03T02:29:20;15.43;;;3.92;;
17965;SDS011;9108;53.204;10.424;2023-04-03T02:31:47;11.65;;;3.63;;
17965;SDS011;9108;53.204;10.424;2023-04-03T02:34:14;14.05;;;3.70;;
17965;SDS011;9108;53.204;10.424;2023-04-03T02:36:41;14.40;;;3.40;;
17965;SDS011;9108;53.204;10.424;2023-04-03T02:39:09;16.00;;;3.88;;
17965;SDS011;9108;53.204;10.424;2023-04-03T02:41:37;20.52;;;4.13;;
17965;SDS011;9108;53.204;10.424;2023-04-03T02:44:05;15.15;;;4.00;;
17965;SDS011;9108;53.204;10.424;2023-04-03T02:46:32;19.48;;;4.18;;
17965;SDS011;9108;53.204;10.424;2023-04-03T02:49:00;18.88;;;4.10;;
17965;SDS011;9108;53.204;10.424;2023-04-03T02:51:27;15.63;;;3.90;;
17965;SDS011;9108;53.204;10.424;2023-04-03T02:53:54;14.88;;;4.00;;
17965;SDS011;9108;53.204;10.424;2023-04-03T02:56:21;14.88;;;4.22;;
17965;SDS011;9108;53.204;10.424;2023-04-03T02:58:49;18.33;;;4.23;;
17965;SDS011;9108;53.204;10.424;2023-04-03T03:01:17;19.15;;;4.50;;
17965;SDS011;9108;53.204;10.424;2023-04-03T03:03:44;16.45;;;4.30;;
17965;SDS011;9108;53.204;10.424;2023-04-03T03:06:12;16.30;;;4.20;;
17965;SDS011;9108;53.204;10.424;2023-04-03T03:08:40;16.95;;;4.68;;
17965;SDS011;9108;53.204;10.424;2023-04-03T03:11:07;15.55;;;4.22;;
17965;SDS011;9108;53.204;10.424;2023-04-03T03:13:34;14.35;;;4.45;;
17965;SDS011;9108;53.204;10.424;2023-04-03T03:16:03;16.40;;;4.15;;
17965;SDS011;9108;53.204;10.424;2023-04-03T03:18:31;15.45;;;4.50;;
17965;SDS011;9108;53.204;10.424;2023-04-03T03:20:58;17.40;;;4.30;;
17965;SDS011;9108;53.204;10.424;2023-04-03T03:23:26;18.80;;;4.30;;
17965;SDS011;9108;53.204;10.424;2023-04-03T03:25:54;15.20;;;4.00;;
17965;SDS011;9108;53.204;10.424;2023-04-03T03:28:21;15.80;;;4.43;;
17965;SDS011;9108;53.204;10.424;2023-04-03T03:30:49;18.20;;;4.68;;
17965;SDS011;9108;53.204;10.424;2023-04-03T03:33:17;17.40;;;4.13;;
17965;SDS011;9108;53.204;10.424;2023-04-03T03:35:44;13.23;;;4.07;;
17965;SDS011;9108;53.204;10.424;2023-04-03T03:38:12;17.77;;;4.00;;
17965;SDS011;9108;53.204;10.424;2023-04-03T03:40:39;17.95;;;4.10;;
17965;SDS011;9108;53.204;10.424;2023-04-03T03:43:06;13.95;;;4.13;;
17965;SDS011;9108;53.204;10.424;2023-04-03T03:45:33;16.90;;;4.05;;
17965;SDS011;9108;53.204;10.424;2023-04-03T03:48:00;15.38;;;3.85;;
17965;SDS011;9108;53.204;10.424;2023-04-03T03:50:29;15.98;;;4.00;;
17965;SDS011;9108;53.204;10.424;2023-04-03T03:52:56;17.38;;;3.85;;
17965;SDS011;9108;53.204;10.424;2023-04-03T03:55:23;16.38;;;3.78;;
17965;SDS011;9108;53.204;10.424;2023-04-03T03:57:50;21.70;;;4.13;;
17965;SDS011;9108;53.204;10.424;2023-04-03T04:00:17;15.27;;;3.85;;
17965;SDS011;9108;53.204;10.424;2023-04-03T04:02:44;16.58;;;3.65;;
17965;SDS011;9108;53.204;10.424;2023-04-03T04:05:11;19.92;;;3.90;;
17965;SDS011;9108;53.204;10.424;2023-04-03T04:07:40;18.23;;;3.77;;
17965;SDS011;9108;53.204;10.424;2023-04-03T04:10:08;16.38;;;3.72;;
17965;SDS011;9108;53.204;10.424;2023-04-03T04:12:35;15.57;;;3.50;;
17965;SDS011;9108;53.204;10.424;2023-04-03T04:15:02;16.02;;;3.78;;
17965;SDS011;9108;53.204;10.424;2023-04-03T04:17:29;14.25;;;3.60;;
17965;SDS011;9108;53.204;10.424;2023-04-03T04:19:56;14.48;;;3.70;;
17965;SDS011;9108;53.204;10.424;2023-04-03T04:22:24;16.38;;;3.92;;
17965;SDS011;9108;53.204;10.424;2023-04-03T04:24:52;14.73;;;3.80;;
17965;SDS011;9108;53.204;10.424;2023-04-03T04:27:19;14.90;;;3.60;;
17965;SDS011;9108;53.204;10.424;2023-04-03T04:29:46;15.50;;;3.90;;
17965;SDS011;9108;53.204;10.424;2023-04-03T04:32:14;11.80;;;3.55;;
17965;SDS011;9108;53.204;10.424;2023-04-03T04:34:41;15.40;;;4.00;;
17965;SDS011;9108;53.204;10.424;2023-04-03T04:37:08;13.95;;;3.60;;
17965;SDS011;9108;53.204;10.424;2023-04-03T04:39:36;12.18;;;3.60;;
17965;SDS011;9108;53.204;10.424;2023-04-03T04:42:05;13.25;;;3.53;;
17965;SDS011;9108;53.204;10.424;2023-04-03T04:44:37;15.45;;;4.03;;
17965;SDS011;9108;53.204;10.424;2023-04-03T04:47:04;11.57;;;3.53;;
17965;SDS011;9108;53.204;10.424;2023-04-03T04:49:32;12.45;;;3.70;;
17965;SDS011;9108;53.204;10.424;2023-04-03T04:51:59;17.38;;;4.10;;
17965;SDS011;9108;53.204;10.424;2023-04-03T04:54:26;14.52;;;4.50;;
17965;SDS011;9108;53.204;10.424;2023-04-03T04:56:53;17.63;;;4.03;;
17965;SDS011;9108;53.204;10.424;2023-04-03T04:59:21;15.63;;;4.20;;
17965;SDS011;9108;53.204;10.424;2023-04-03T05:01:48;16.15;;;4.13;;
17965;SDS011;9108;53.204;10.424;2023-04-03T05:04:16;13.10;;;4.35;;
17965;SDS011;9108;53.204;10.424;2023-04-03T05:06:43;13.43;;;4.00;;
17965;SDS011;9108;53.204;10.424;2023-04-03T05:09:10;14.98;;;4.20;;
17965;SDS011;9108;53.204;10.424;2023-04-03T05:11:37;11.13;;;3.90;;
17965;SDS011;9108;53.204;10.424;2023-04-03T05:14:05;15.35;;;4.32;;
17965;SDS011;9108;53.204;10.424;2023-04-03T05:16:34;16.70;;;4.50;;
17965;SDS011;9108;53.204;10.424;2023-04-03T05:19:02;15.27;;;4.25;;
17965;SDS011;9108;53.204;10.424;2023-04-03T05:21:31;13.77;;;4.40;;
17965;SDS011;9108;53.204;10.424;2023-04-03T05:23:59;14.55;;;4.43;;
17965;SDS011;9108;53.204;10.424;2023-04-03T05:26:28;15.13;;;4.10;;
17965;SDS011;9108;53.204;10.424;2023-04-03T05:28:56;10.80;;;3.83;;
17965;SDS011;9108;53.204;10.424;2023-04-03T05:31:24;11.77;;;3.85;;
17965;SDS011;9108;53.204;10.424;2023-04-03T05:33:56;10.20;;;3.15;;
17965;SDS011;9108;53.204;10.424;2023-04-03T05:36:24;13.02;;;3.47;;
17965;SDS011;9108;53.204;10.424;2023-04-03T05:38:52;12.77;;;3.40;;
17965;SDS011;9108;53.204;10.424;2023-04-03T05:41:21;9.73;;;2.85;;
17965;SDS011;9108;53.204;10.424;2023-04-03T05:43:50;9.70;;;3.10;;
17965;SDS011;9108;53.204;10.424;2023-04-03T05:46:19;10.25;;;3.10;;
17965;SDS011;9108;53.204;10.424;2023-04-03T05:48:47;10.40;;;2.95;;
17965;SDS011;9108;53.204;10.424;2023-04-03T05:51:18;10.33;;;3.00;;
17965;SDS011;9108;53.204;10.424;2023-04-03T05:53:46;9.73;;;3.00;;
17965;SDS011;9108;53.204;10.424;2023-04-03T05:56:14;9.43;;;3.00;;
17965;SDS011;9108;53.204;10.424;2023-04-03T05:58:41;11.77;;;2.70;;
17965;SDS011;9108;53.204;10.424;2023-04-03T06:01:08;8.52;;;2.70;;
17965;SDS011;9108;53.204;10.424;2023-04-03T06:03:36;9.70;;;2.90;;
17965;SDS011;9108;53.204;10.424;2023-04-03T06:06:05;9.32;;;2.55;;
17965;SDS011;9108;53.204;10.424;2023-04-03T06:08:34;7.80;;;2.67;;
17965;SDS011;9108;53.204;10.424;2023-04-03T06:11:01;8.75;;;2.67;;
17965;SDS011;9108;53.204;10.424;2023-04-03T06:13:30;7.80;;;2.47;;
17965;SDS011;9108;53.204;10.424;2023-04-03T06:15:58;9.27;;;2.70;;
17965;SDS011;9108;53.204;10.424;2023-04-03T06:18:25;8.75;;;2.70;;
17965;SDS011;9108;53.204;10.424;2023-04-03T06:20:56;10.07;;;2.63;;
17965;SDS011;9108;53.204;10.424;2023-04-03T06:23:23;11.02;;;2.80;;
17965;SDS011;9108;53.204;10.424;2023-04-03T06:25:53;10.18;;;2.67;;
17965;SDS011;9108;53.204;10.424;2023-04-03T06:28:20;10.13;;;2.50;;
17965;SDS011;9108;53.204;10.424;2023-04-03T06:30:47;9.23;;;2.60;;
17965;SDS011;9108;53.204;10.424;2023-04-03T06:33:14;8.77;;;2.42;;
17965;SDS011;9108;53.204;10.424;2023-04-03T06:35:44;9.32;;;2.20;;
17965;SDS011;9108;53.204;10.424;2023-04-03T06:38:11;8.23;;;2.30;;
17965;SDS011;9108;53.204;10.424;2023-04-03T06:40:38;8.10;;;2.10;;
17965;SDS011;9108;53.204;10.424;2023-04-03T06:43:12;8.55;;;2.10;;
17965;SDS011;9108;53.204;10.424;2023-04-03T06:45:39;9.48;;;2.20;;
17965;SDS011;9108;53.204;10.424;2023-04-03T06:48:06;6.97;;;1.75;;
17965;SDS011;9108;53.204;10.424;2023-04-03T06:50:34;5.97;;;1.80;;
17965;SDS011;9108;53.204;10.424;2023-04-03T06:53:01;8.55;;;1.70;;
17965;SDS011;9108;53.204;10.424;2023-04-03T06:55:28;6.47;;;1.77;;
17965;SDS011;9108;53.204;10.424;2023-04-03T06:57:56;5.45;;;1.70;;
17965;SDS011;9108;53.204;10.424;2023-04-03T07:00:25;6.45;;;1.58;;
17965;SDS011;9108;53.204;10.424;2023-04-03T07:02:52;5.47;;;1.60;;
17965;SDS011;9108;53.204;10.424;2023-04-03T07:05:21;6.30;;;1.60;;
17965;SDS011;9108;53.204;10.424;2023-04-03T07:07:48;6.00;;;1.65;;
17965;SDS011;9108;53.204;10.424;2023-04-03T07:10:16;6.95;;;1.38;;
17965;SDS011;9108;53.204;10.424;2023-04-03T07:12:43;7.68;;;1.55;;
17965;SDS011;9108;53.204;10.424;2023-04-03T07:15:11;5.60;;;1.40;;
17965;SDS011;9108;53.204;10.424;2023-04-03T07:17:40;5.85;;;1.40;;
17965;SDS011;9108;53.204;10.424;2023-04-03T07:20:08;5.45;;;1.40;;
17965;SDS011;9108;53.204;10.424;2023-04-03T07:22:36;6.80;;;1.60;;
17965;SDS011;9108;53.204;10.424;2023-04-03T07:25:03;6.32;;;1.48;;
17965;SDS011;9108;53.204;10.424;2023-04-03T07:27:32;4.73;;;1.37;;
17965;SDS011;9108;53.204;10.424;2023-04-03T07:29:59;7.37;;;1.80;;
17965;SDS011;9108;53.204;10.424;2023-04-03T07:32:29;7.28;;;1.55;;
17965;SDS011;9108;53.204;10.424;2023-04-03T07:34:58;4.72;;;1.40;;
17965;SDS011;9108;53.204;10.424;2023-04-03T07:37:25;4.63;;;1.40;;
17965;SDS011;9108;53.204;10.424;2023-04-03T07:39:55;6.50;;;1.40;;
17965;SDS011;9108;53.204;10.424;2023-04-03T07:42:24;5.93;;;1.40;;
17965;SDS011;9108;53.204;10.424;2023-04-03T07:44:51;4.43;;;1.20;;
17965;SDS011;9108;53.204;10.424;2023-04-03T07:47:18;4.18;;;1.15;;
17965;SDS011;9108;53.204;10.424;2023-04-03T07:49:49;4.10;;;1.20;;
17965;SDS011;9108;53.204;10.424;2023-04-03T07:52:17;5.68;;;1.30;;
17965;SDS011;9108;53.204;10.424;2023-04-03T07:54:49;5.60;;;1.42;;
17965;SDS011;9108;53.204;10.424;2023-04-03T07:57:16;5.13;;;1.25;;
17965;SDS011;9108;53.204;10.424;2023-04-03T07:59:44;6.82;;;1.33;;
17965;SDS011;9108;53.204;10.424;2023-04-03T08:02:11;5.95;;;1.25;;
17965;SDS011;9108;53.204;10.424;2023-04-03T08:04:39;6.15;;;1.33;;
17965;SDS011;9108;53.204;10.424;2023-04-03T08:07:06;5.40;;;1.07;;
17965;SDS011;9108;53.204;10.424;2023-04-03T08:09:34;5.03;;;1.10;;
17965;SDS011;9108;53.204;10.424;2023-04-03T08:12:02;4.60;;;1.30;;
17965;SDS011;9108;53.204;10.424;2023-04-03T08:14:30;4.15;;;1.00;;
17965;SDS011;9108;53.204;10.424;2023-04-03T08:17:01;4.25;;;1.02;;
17965;SDS011;9108;53.204;10.424;2023-04-03T08:19:29;4.35;;;1.15;;
17965;SDS011;9108;53.204;10.424;2023-04-03T08:21:59;5.97;;;1.17;;
17965;SDS011;9108;53.204;10.424;2023-04-03T08:24:28;4.88;;;1.05;;
17965;SDS011;9108;53.204;10.424;2023-04-03T08:26:58;4.63;;;1.40;;
17965;SDS011;9108;53.204;10.424;2023-04-03T08:29:25;6.40;;;1.35;;
17965;SDS011;9108;53.204;10.424;2023-04-03T08:31:55;5.27;;;1.20;;
17965;SDS011;9108;53.204;10.424;2023-04-03T08:34:23;6.50;;;1.50;;
17965;SDS011;9108;53.204;10.424;2023-04-03T08:36:50;3.55;;;1.25;;
17965;SDS011;9108;53.204;10.424;2023-04-03T08:39:17;5.07;;;1.75;;
17965;SDS011;9108;53.204;10.424;2023-04-03T08:41:47;4.45;;;0.98;;
17965;SDS011;9108;53.204;10.424;2023-04-03T08:44:23;5.70;;;1.10;;
17965;SDS011;9108;53.204;10.424;2023-04-03T08:46:54;3.33;;;1.00;;
17965;SDS011;9108;53.204;10.424;2023-04-03T08:49:24;3.28;;;1.00;;
17965;SDS011;9108;53.204;10.424;2023-04-03T08:51:53;3.28;;;1.00;;
17965;SDS011;9108;53.204;10.424;2023-04-03T08:54:27;3.03;;;0.93;;
17965;SDS011;9108;53.204;10.424;2023-04-03T08:56:55;3.45;;;1.00;;
17965;SDS011;9108;53.204;10.424;2023-04-03T08:59:26;2.45;;;0.80;;
17965;SDS011;9108;53.204;10.424;2023-04-03T09:01:55;3.78;;;0.90;;
17965;SDS011;9108;53.204;10.424;2023-04-03T09:04:23;3.75;;;0.80;;
17965;SDS011;9108;53.204;10.424;2023-04-03T09:06:52;3.30;;;0.90;;
17965;SDS011;9108;53.204;10.424;2023-04-03T09:09:24;4.13;;;1.00;;
17965;SDS011;9108;53.204;10.424;2023-04-03T09:11:58;4.30;;;1.10;;
17965;SDS011;9108;53.204;10.424;2023-04-03T09:14:32;5.72;;;1.05;;
17965;SDS011;9108;53.204;10.424;2023-04-03T09:17:02;4.43;;;1.00;;
17965;SDS011;9108;53.204;10.424;2023-04-03T09:19:34;3.90;;;0.90;;
17965;SDS011;9108;53.204;10.424;2023-04-03T09:22:07;4.95;;;1.00;;
17965;SDS011;9108;53.204;10.424;2023-04-03T09:24:38;4.27;;;0.90;;
17965;SDS011;9108;53.204;10.424;2023-04-03T09:27:07;4.93;;;1.00;;
17965;SDS011;9108;53.204;10.424;2023-04-03T09:29:38;3.53;;;0.90;;
17965;SDS011;9108;53.204;10.424;2023-04-03T09:32:11;4.75;;;1.00;;
17965;SDS011;9108;53.204;10.424;2023-04-03T09:34:43;4.93;;;1.10;;
17965;SDS011;9108;53.204;10.424;2023-04-03T09:37:10;3.53;;;1.20;;
17965;SDS011;9108;53.204;10.424;2023-04-03T09:39:58;4.68;;;1.20;;
17965;SDS011;9108;53.204;10.424;2023-04-03T09:42:25;3.22;;;0.90;;
17965;SDS011;9108;53.204;10.424;2023-04-03T09:44:55;4.15;;;1.10;;
17965;SDS011;9108;53.204;10.424;2023-04-03T09:47:24;4.23;;;0.97;;
17965;SDS011;9108;53.204;10.424;2023-04-03T09:49:52;4.50;;;1.10;;
17965;SDS011;9108;53.204;10.424;2023-04-03T09:52:35;3.42;;;1.00;;
17965;SDS011;9108;53.204;10.424;2023-04-03T09:55:06;3.30;;;0.90;;
17965;SDS011;9108;53.204;10.424;2023-04-03T09:57:33;4.03;;;1.10;;
17965;SDS011;9108;53.204;10.424;2023-04-03T10:00:02;5.10;;;1.10;;
17965;SDS011;9108;53.204;10.424;2023-04-03T10:02:32;3.53;;;0.90;;
17965;SDS011;9108;53.204;10.424;2023-04-03T10:05:01;2.70;;;0.90;;
17965;SDS011;9108;53.204;10.424;2023-04-03T10:07:30;4.22;;;1.00;;
17965;SDS011;9108;53.204;10.424;2023-04-03T10:09:58;4.07;;;1.10;;
17965;SDS011;9108;53.204;10.424;2023-04-03T10:12:26;3.70;;;1.00;;
17965;SDS011;9108;53.204;10.424;2023-04-03T10:14:54;4.97;;;1.00;;
17965;SDS011;9108;53.204;10.424;2023-04-03T10:17:25;4.63;;;1.00;;
17965;SDS011;9108;53.204;10.424;2023-04-03T10:19:57;3.05;;;0.85;;
17965;SDS011;9108;53.204;10.424;2023-04-03T10:22:30;3.15;;;0.98;;
17965;SDS011;9108;53.204;10.424;2023-04-03T10:25:00;3.20;;;0.70;;
17965;SDS011;9108;53.204;10.424;2023-04-03T10:27:32;4.72;;;1.15;;
17965;SDS011;9108;53.204;10.424;2023-04-03T10:30:04;3.42;;;0.80;;
17965;SDS011;9108;53.204;10.424;2023-04-03T10:32:47;2.92;;;0.80;;
17965;SDS011;9108;53.204;10.424;2023-04-03T10:35:20;4.60;;;0.95;;
17965;SDS011;9108;53.204;10.424;2023-04-03T10:37:54;3.78;;;1.00;;
17965;SDS011;9108;53.204;10.424;2023-04-03T10:40:28;2.83;;;0.90;;
17965;SDS011;9108;53.204;10.424;2023-04-03T10:42:59;3.45;;;0.88;;
17965;SDS011;9108;53.204;10.424;2023-04-03T10:45:28;4.05;;;1.02;;
17965;SDS011;9108;53.204;10.424;2023-04-03T10:48:01;4.45;;;1.13;;
17965;SDS011;9108;53.204;10.424;2023-04-03T10:50:32;4.45;;;1.00;;
17965;SDS011;9108;53.204;10.424;2023-04-03T10:53:03;4.63;;;1.00;;
17965;SDS011;9108;53.204;10.424;2023-04-03T10:55:34;3.87;;;0.97;;
17965;SDS011;9108;53.204;10.424;2023-04-03T10:58:03;3.08;;;0.80;;
17965;SDS011;9108;53.204;10.424;2023-04-03T11:00:35;4.18;;;0.88;;
17965;SDS011;9108;53.204;10.424;2023-04-03T11:03:05;4.50;;;0.90;;
17965;SDS011;9108;53.204;10.424;2023-04-03T11:05:34;4.68;;;0.82;;
17965;SDS011;9108;53.204;10.424;2023-04-03T11:08:04;3.13;;;0.80;;
17965;SDS011;9108;53.204;10.424;2023-04-03T11:10:35;3.63;;;0.85;;
17965;SDS011;9108;53.204;10.424;2023-04-03T11:13:06;4.57;;;0.90;;
17965;SDS011;9108;53.204;10.424;2023-04-03T11:15:35;4.65;;;1.00;;
17965;SDS011;9108;53.204;10.424;2023-04-03T11:18:04;3.97;;;0.90;;
17965;SDS011;9108;53.204;10.424;2023-04-03T11:20:34;3.58;;;0.80;;
17965;SDS011;9108;53.204;10.424;2023-04-03T11:23:03;4.35;;;0.90;;
17965;SDS011;9108;53.204;10.424;2023-04-03T11:25:31;2.92;;;0.80;;
17965;SDS011;9108;53.204;10.424;2023-04-03T11:28:00;3.47;;;0.80;;
17965;SDS011;9108;53.204;10.424;2023-04-03T11:30:30;4.47;;;1.00;;
17965;SDS011;9108;53.204;10.424;2023-04-03T11:35:44;4.63;;;0.90;;
17965;SDS011;9108;53.204;10.424;2023-04-03T11:38:14;3.67;;;0.90;;
17965;SDS011;9108;53.204;10.424;2023-04-03T11:40:44;3.53;;;0.90;;
17965;SDS011;9108;53.204;10.424;2023-04-03T11:43:18;5.45;;;1.10;;
17965;SDS011;9108;53.204;10.424;2023-04-03T11:45:52;2.47;;;0.90;;
17965;SDS011;9108;53.204;10.424;2023-04-03T11:53:49;6.32;;;1.10;;
17965;SDS011;9108;53.204;10.424;2023-04-03T11:56:29;5.00;;;0.90;;
17965;SDS011;9108;53.204;10.424;2023-04-03T11:59:16;3.58;;;1.02;;
17965;SDS011;9108;53.204;10.424;2023-04-03T12:01:44;2.78;;;1.10;;
17965;SDS011;9108;53.204;10.424;2023-04-03T12:04:12;5.13;;;1.10;;
17965;SDS011;9108;53.204;10.424;2023-04-03T12:09:25;5.20;;;1.10;;
17965;SDS011;9108;53.204;10.424;2023-04-03T12:11:52;5.80;;;1.05;;
17965;SDS011;9108;53.204;10.424;2023-04-03T12:14:22;3.85;;;1.00;;
17965;SDS011;9108;53.204;10.424;2023-04-03T12:16:50;5.32;;;1.10;;
17965;SDS011;9108;53.204;10.424;2023-04-03T12:19:32;3.47;;;1.00;;
17965;SDS011;9108;53.204;10.424;2023-04-03T12:22:12;4.68;;;1.02;;
17965;SDS011;9108;53.204;10.424;2023-04-03T12:24:41;5.03;;;1.30;;
17965;SDS011;9108;53.204;10.424;2023-04-03T12:27:14;3.88;;;1.13;;
17965;SDS011;9108;53.204;10.424;2023-04-03T12:29:43;4.50;;;1.20;;
17965;SDS011;9108;53.204;10.424;2023-04-03T12:32:17;4.70;;;1.20;;
17965;SDS011;9108;53.204;10.424;2023-04-03T12:34:53;3.45;;;1.30;;
17965;SDS011;9108;53.204;10.424;2023-04-03T12:37:31;4.95;;;1.35;;
17965;SDS011;9108;53.204;10.424;2023-04-03T12:40:06;2.95;;;1.20;;
17965;SDS011;9108;53.204;10.424;2023-04-03T12:42:41;4.63;;;1.13;;
17965;SDS011;9108;53.204;10.424;2023-04-03T12:45:12;3.80;;;1.20;;
17965;SDS011;9108;53.204;10.424;2023-04-03T12:47:43;6.37;;;1.43;;
17965;SDS011;9108;53.204;10.424;2023-04-03T12:50:17;4.68;;;1.35;;
17965;SDS011;9108;53.204;10.424;2023-04-03T12:52:47;3.93;;;1.30;;
17965;SDS011;9108;53.204;10.424;2023-04-03T12:55:18;4.05;;;1.27;;
17965;SDS011;9108;53.204;10.424;2023-04-03T12:57:46;4.80;;;1.10;;
17965;SDS011;9108;53.204;10.424;2023-04-03T13:00:20;4.40;;;1.05;;
17965;SDS011;9108;53.204;10.424;2023-04-03T13:02:48;4.07;;;1.20;;
17965;SDS011;9108;53.204;10.424;2023-04-03T13:05:16;4.93;;;1.20;;
17965;SDS011;9108;53.204;10.424;2023-04-03T13:07:43;4.97;;;1.20;;
17965;SDS011;9108;53.204;10.424;2023-04-03T13:10:16;4.95;;;1.17;;
17965;SDS011;9108;53.204;10.424;2023-04-03T13:12:49;2.72;;;1.15;;
17965;SDS011;9108;53.204;10.424;2023-04-03T13:15:17;3.38;;;1.10;;
17965;SDS011;9108;53.204;10.424;2023-04-03T13:17:45;5.45;;;1.00;;
17965;SDS011;9108;53.204;10.424;2023-04-03T13:20:17;4.65;;;1.25;;
17965;SDS011;9108;53.204;10.424;2023-04-03T13:22:47;5.07;;;1.30;;
17965;SDS011;9108;53.204;10.424;2023-04-03T13:25:15;4.80;;;1.10;;
17965;SDS011;9108;53.204;10.424;2023-04-03T13:27:42;5.53;;;1.20;;
17965;SDS011;9108;53.204;10.424;2023-04-03T13:30:23;5.40;;;1.17;;
17965;SDS011;9108;53.204;10.424;2023-04-03T13:32:51;2.97;;;1.05;;
17965;SDS011;9108;53.204;10.424;2023-04-03T13:35:29;4.85;;;1.20;;
17965;SDS011;9108;53.204;10.424;2023-04-03T13:37:57;5.75;;;1.10;;
17965;SDS011;9108;53.204;10.424;2023-04-03T13:40:25;4.72;;;1.00;;
17965;SDS011;9108;53.204;10.424;2023-04-03T13:42:59;5.00;;;1.08;;
17965;SDS011;9108;53.204;10.424;2023-04-03T13:45:29;4.05;;;1.05;;
17965;SDS011;9108;53.204;10.424;2023-04-03T13:48:07;4.70;;;1.20;;
17965;SDS011;9108;53.204;10.424;2023-04-03T13:50:49;6.15;;;1.17;;
17965;SDS011;9108;53.204;10.424;2023-04-03T13:53:17;3.63;;;1.00;;
17965;SDS011;9108;53.204;10.424;2023-04-03T13:58:36;4.25;;;0.95;;
17965;SDS011;9108;53.204;10.424;2023-04-03T14:01:10;4.25;;;1.00;;
17965;SDS011;9108;53.204;10.424;2023-04-03T14:03:40;3.30;;;0.90;;
17965;SDS011;9108;53.204;10.424;2023-04-03T14:06:08;4.57;;;0.98;;
17965;SDS011;9108;53.204;10.424;2023-04-03T14:08:36;4.37;;;1.20;;
17965;SDS011;9108;53.204;10.424;2023-04-03T14:11:03;4.20;;;0.90;;
17965;SDS011;9108;53.204;10.424;2023-04-03T14:13:31;4.85;;;0.95;;
17965;SDS011;9108;53.204;10.424;2023-04-03T14:15:58;3.80;;;1.13;;
17965;SDS011;9108;53.204;10.424;2023-04-03T14:18:27;5.63;;;1.10;;
17965;SDS011;9108;53.204;10.424;2023-04-03T14:20:55;3.88;;;0.80;;
17965;SDS011;9108;53.204;10.424;2023-04-03T14:23:22;5.88;;;1.10;;
17965;SDS011;9108;53.204;10.424;2023-04-03T14:25:49;3.80;;;1.00;;
17965;SDS011;9108;53.204;10.424;2023-04-03T14:28:17;6.25;;;1.17;;
17965;SDS011;9108;53.204;10.424;2023-04-03T14:30:45;3.38;;;0.82;;
17965;SDS011;9108;53.204;10.424;2023-04-03T14:33:13;2.60;;;0.85;;
17965;SDS011;9108;53.204;10.424;2023-04-03T14:35:42;2.85;;;0.90;;
17965;SDS011;9108;53.204;10.424;2023-04-03T14:38:12;3.65;;;0.90;;
17965;SDS011;9108;53.204;10.424;2023-04-03T14:40:44;4.53;;;0.90;;
17965;SDS011;9108;53.204;10.424;2023-04-03T14:43:12;4.10;;;1.10;;
17965;SDS011;9108;53.204;10.424;2023-04-03T14:45:40;3.40;;;0.90;;
17965;SDS011;9108;53.204;10.424;2023-04-03T14:48:09;3.45;;;1.00;;
17965;SDS011;9108;53.204;10.424;2023-04-03T14:50:37;3.72;;;0.95;;
17965;SDS011;9108;53.204;10.424;2023-04-03T14:53:06;4.45;;;1.02;;
17965;SDS011;9108;53.204;10.424;2023-04-03T14:55:33;3.70;;;1.00;;
17965;SDS011;9108;53.204;10.424;2023-04-03T14:58:00;2.65;;;1.00;;
17965;SDS011;9108;53.204;10.424;2023-04-03T15:00:28;3.67;;;1.10;;
17965;SDS011;9108;53.204;10.424;2023-04-03T15:02:55;4.57;;;1.05;;
17965;SDS011;9108;53.204;10.424;2023-04-03T15:05:22;4.25;;;1.00;;
17965;SDS011;9108;53.204;10.424;2023-04-03T15:07:50;4.85;;;1.00;;
17965;SDS011;9108;53.204;10.424;2023-04-03T15:10:21;3.22;;;0.90;;